Time;durP1;ratioP1;P1;durP2;ratioP2;P2;SDS_P1;SDS_P2;PMS_P1;PMS_P2;Temp;Humidity;BMP_temperature;BMP_pressure;BME280_temperature;BME280_humidity;BME280_pressure;Samples;Min_cycle;Max_cycle;Signal;HPM_P1;HPM_P2
2021/12/20 00:00:18;;;;;;;7.57;3.50;;;;;;;;;;6222181;23;20004;-88
2021/12/20 00:02:46;;;;;;;6.28;4.25;;;;;;;;;;6248783;23;20000;-88
2021/12/20 00:05:12;;;;;;;5.55;4.10;;;;;;;;;;6222239;23;20000;-87
2021/12/20 00:07:38;;;;;;;5.95;3.70;;;;;;;;;;6222165;23;20044;-87
2021/12/20 00:10:04;;;;;;;5.82;4.07;;;;;;;;;;6248667;23;20059;-87
2021/12/20 00:12:30;;;;;;;8.55;4.90;;;;;;;;;;6249324;23;20473;-88
2021/12/20 00:14:55;;;;;;;6.65;4.00;;;;;;;;;;6222150;23;20008;-86
2021/12/20 00:17:21;;;;;;;4.82;3.60;;;;;;;;;;6221632;23;20008;-87
2021/12/20 00:19:47;;;;;;;5.53;3.67;;;;;;;;;;6248383;23;20011;-86
2021/12/20 00:22:12;;;;;;;5.72;3.80;;;;;;;;;;6222523;23;20004;-86
2021/12/20 00:24:38;;;;;;;5.03;3.80;;;;;;;;;;6222752;23;20423;-87
2021/12/20 00:27:07;;;;;;;4.63;3.72;;;;;;;;;;6248631;23;20004;-87
2021/12/20 00:29:34;;;;;;;5.82;3.67;;;;;;;;;;6221913;23;20062;-87
2021/12/20 00:31:59;;;;;;;6.30;3.63;;;;;;;;;;6221754;23;20015;-87
2021/12/20 00:34:24;;;;;;;5.65;3.47;;;;;;;;;;6221639;23;20004;-86
2021/12/20 00:36:57;;;;;;;6.65;4.10;;;;;;;;;;6248247;23;20038;-87
2021/12/20 00:42:08;;;;;;;6.47;4.00;;;;;;;;;;6248282;23;20091;-86
2021/12/20 00:44:33;;;;;;;5.38;3.65;;;;;;;;;;6248336;23;20412;-87
2021/12/20 00:46:58;;;;;;;5.15;3.33;;;;;;;;;;6222066;23;20008;-87
2021/12/20 00:49:24;;;;;;;8.20;3.90;;;;;;;;;;6222776;23;20005;-87
2021/12/20 00:51:49;;;;;;;4.40;3.47;;;;;;;;;;6221500;23;20083;-87
2021/12/20 00:54:15;;;;;;;5.78;3.65;;;;;;;;;;6221485;23;20011;-87
2021/12/20 00:56:40;;;;;;;3.80;2.80;;;;;;;;;;6221594;23;20004;-88
2021/12/20 00:59:07;;;;;;;4.18;2.85;;;;;;;;;;6221483;23;20078;-88
2021/12/20 01:01:33;;;;;;;7.15;3.03;;;;;;;;;;6221476;23;20015;-87
2021/12/20 01:03:58;;;;;;;4.90;3.80;;;;;;;;;;6221421;23;20008;-87
2021/12/20 01:06:24;;;;;;;4.20;3.80;;;;;;;;;;6221667;23;20004;-87
2021/12/20 01:08:50;;;;;;;5.07;3.75;;;;;;;;;;6248377;23;20020;-87
2021/12/20 01:11:21;;;;;;;5.75;3.53;;;;;;;;;;6221358;23;20118;-87
2021/12/20 01:13:47;;;;;;;6.38;3.97;;;;;;;;;;6221438;23;20011;-85
2021/12/20 01:16:13;;;;;;;3.92;2.90;;;;;;;;;;6247909;23;20015;-87
2021/12/20 01:18:39;;;;;;;5.18;2.50;;;;;;;;;;6248011;23;20008;-86
2021/12/20 01:21:05;;;;;;;3.25;2.80;;;;;;;;;;6247754;23;20011;-87
2021/12/20 01:23:31;;;;;;;4.85;3.85;;;;;;;;;;6247983;23;20071;-85
2021/12/20 01:25:57;;;;;;;5.53;2.85;;;;;;;;;;6221104;23;20000;-87
2021/12/20 01:28:22;;;;;;;5.00;3.70;;;;;;;;;;6247733;23;20010;-87
2021/12/20 01:30:48;;;;;;;5.22;3.25;;;;;;;;;;6247694;23;20481;-88
2021/12/20 01:33:14;;;;;;;5.57;3.10;;;;;;;;;;6221150;23;20000;-87
2021/12/20 01:35:40;;;;;;;3.63;3.13;;;;;;;;;;6221134;23;20050;-87
2021/12/20 01:38:07;;;;;;;5.10;3.25;;;;;;;;;;6221819;23;20355;-84
2021/12/20 01:40:35;;;;;;;3.75;2.88;;;;;;;;;;6221007;23;20004;-88
2021/12/20 01:43:00;;;;;;;2.90;2.35;;;;;;;;;;6221130;23;20004;-87
2021/12/20 01:45:28;;;;;;;4.28;2.90;;;;;;;;;;6221071;23;20014;-88
2021/12/20 01:48:27;;;;;;;2.38;2.03;;;;;;;;;;6222006;23;20008;-87
2021/12/20 01:51:02;;;;;;;4.82;3.00;;;;;;;;;;6242259;23;20071;-87
2021/12/20 01:53:27;;;;;;;4.93;3.17;;;;;;;;;;6220743;23;20015;-85
2021/12/20 01:55:55;;;;;;;3.35;2.42;;;;;;;;;;6247696;23;20000;-84
2021/12/20 01:58:22;;;;;;;4.18;2.60;;;;;;;;;;6221064;23;20004;-86
2021/12/20 02:01:01;;;;;;;4.60;2.42;;;;;;;;;;6220899;23;20008;-87
2021/12/20 02:03:27;;;;;;;5.22;2.53;;;;;;;;;;6221040;23;20031;-87
2021/12/20 02:05:56;;;;;;;3.40;2.50;;;;;;;;;;6221081;23;20027;-88
2021/12/20 02:08:24;;;;;;;3.13;2.33;;;;;;;;;;6221358;23;20004;-86
2021/12/20 02:10:56;;;;;;;3.67;2.50;;;;;;;;;;6248239;23;20367;-88
2021/12/20 02:13:25;;;;;;;3.85;2.45;;;;;;;;;;6247707;23;20000;-84
2021/12/20 02:15:51;;;;;;;3.20;2.45;;;;;;;;;;6220693;23;20012;-87
2021/12/20 02:18:17;;;;;;;2.60;2.40;;;;;;;;;;6221122;23;20035;-87
2021/12/20 02:20:43;;;;;;;4.65;3.75;;;;;;;;;;6221157;23;20008;-87
2021/12/20 02:23:09;;;;;;;4.35;2.60;;;;;;;;;;6220783;23;20020;-85
2021/12/20 02:25:35;;;;;;;3.40;2.80;;;;;;;;;;6247423;23;20312;-88
2021/12/20 02:28:13;;;;;;;4.10;2.95;;;;;;;;;;6220648;23;20317;-87
2021/12/20 02:38:59;;;;;;;2.60;1.67;;;;;;;;;;6247649;23;20489;-84
2021/12/20 02:41:31;;;;;;;3.97;2.13;;;;;;;;;;6221777;23;20015;-87
2021/12/20 02:44:03;;;;;;;4.50;2.20;;;;;;;;;;6220506;23;20035;-87
2021/12/20 02:49:16;;;;;;;3.00;2.67;;;;;;;;;;6254311;23;20004;-88
2021/12/20 02:51:43;;;;;;;2.83;2.58;;;;;;;;;;6247272;23;20000;-88
2021/12/20 02:54:10;;;;;;;4.78;2.95;;;;;;;;;;6221035;23;20027;-86
2021/12/20 02:56:37;;;;;;;3.42;2.33;;;;;;;;;;6247205;23;20007;-87
2021/12/20 02:59:03;;;;;;;2.80;2.00;;;;;;;;;;6220324;23;20091;-87
2021/12/20 03:01:29;;;;;;;2.75;2.40;;;;;;;;;;6220273;23;20004;-87
2021/12/20 03:03:56;;;;;;;3.75;2.42;;;;;;;;;;6220117;23;20063;-86
2021/12/20 03:06:29;;;;;;;3.85;2.97;;;;;;;;;;6220598;23;20004;-84
2021/12/20 03:08:57;;;;;;;5.13;3.05;;;;;;;;;;6220520;23;20382;-87
2021/12/20 03:11:25;;;;;;;3.17;2.38;;;;;;;;;;6223110;23;20004;-86
2021/12/20 03:13:54;;;;;;;3.10;2.40;;;;;;;;;;6222485;23;20058;-87
2021/12/20 03:16:20;;;;;;;3.88;2.58;;;;;;;;;;6251273;23;20034;-88
2021/12/20 03:18:46;;;;;;;3.15;2.03;;;;;;;;;;6222342;23;20452;-88
2021/12/20 03:21:12;;;;;;;2.00;1.80;;;;;;;;;;6221911;23;20340;-87
2021/12/20 03:23:38;;;;;;;3.15;2.60;;;;;;;;;;6222341;23;20009;-87
2021/12/20 03:26:05;;;;;;;3.65;2.65;;;;;;;;;;6248933;23;20004;-87
2021/12/20 03:28:30;;;;;;;4.65;2.97;;;;;;;;;;6222409;23;20008;-86
2021/12/20 03:30:56;;;;;;;3.67;2.10;;;;;;;;;;6222432;23;20087;-88
2021/12/20 03:33:21;;;;;;;4.32;2.70;;;;;;;;;;6222153;23;20004;-85
2021/12/20 03:35:47;;;;;;;2.55;2.17;;;;;;;;;;6222952;23;20016;-87
2021/12/20 03:38:12;;;;;;;3.08;2.28;;;;;;;;;;6222615;23;20415;-88
2021/12/20 03:40:38;;;;;;;3.53;2.55;;;;;;;;;;6248923;23;20027;-84
2021/12/20 03:43:05;;;;;;;2.80;2.30;;;;;;;;;;6249428;23;20078;-87
2021/12/20 03:45:31;;;;;;;2.65;2.45;;;;;;;;;;6222062;23;20379;-88
2021/12/20 03:47:57;;;;;;;4.93;2.40;;;;;;;;;;6221997;23;20005;-87
2021/12/20 03:50:24;;;;;;;2.78;1.90;;;;;;;;;;6223215;23;20047;-86
2021/12/20 03:52:50;;;;;;;2.47;2.00;;;;;;;;;;6221917;23;20012;-87
2021/12/20 03:55:15;;;;;;;3.38;2.20;;;;;;;;;;6249352;23;20032;-86
2021/12/20 03:57:41;;;;;;;2.60;2.08;;;;;;;;;;6222016;23;20011;-88
2021/12/20 04:00:10;;;;;;;2.85;2.50;;;;;;;;;;6223189;23;20408;-87
2021/12/20 04:02:41;;;;;;;2.92;2.42;;;;;;;;;;6221837;23;20004;-84
2021/12/20 04:05:06;;;;;;;4.05;2.58;;;;;;;;;;6249536;23;20000;-86
2021/12/20 04:07:32;;;;;;;3.13;2.15;;;;;;;;;;6248619;23;20045;-88
2021/12/20 04:09:58;;;;;;;3.00;2.55;;;;;;;;;;6250308;23;20030;-88
2021/12/20 04:12:23;;;;;;;3.50;2.33;;;;;;;;;;6248765;23;20022;-84
2021/12/20 04:14:49;;;;;;;2.55;2.10;;;;;;;;;;6222231;23;20004;-84
2021/12/20 04:17:14;;;;;;;2.97;2.60;;;;;;;;;;6222639;23;20074;-86
2021/12/20 04:19:40;;;;;;;2.22;2.03;;;;;;;;;;6221844;23;20009;-86
2021/12/20 04:22:05;;;;;;;1.30;1.20;;;;;;;;;;6221662;23;20062;-88
2021/12/20 04:24:31;;;;;;;2.47;1.30;;;;;;;;;;6223272;23;20035;-85
2021/12/20 04:26:56;;;;;;;1.00;0.98;;;;;;;;;;6223175;23;20333;-88
2021/12/20 04:29:22;;;;;;;1.05;0.82;;;;;;;;;;6223330;23;20004;-85
2021/12/20 04:31:48;;;;;;;0.93;0.93;;;;;;;;;;6248682;23;20008;-88
2021/12/20 04:34:13;;;;;;;3.13;2.33;;;;;;;;;;6221716;23;20085;-87
2021/12/20 04:36:39;;;;;;;3.42;1.83;;;;;;;;;;6224527;23;20086;-87
2021/12/20 04:39:09;;;;;;;2.00;1.80;;;;;;;;;;6221759;23;20498;-87
2021/12/20 04:41:34;;;;;;;;;;;;;;;;;;6222072;23;20008;-88
2021/12/20 04:44:00;;;;;;;2.38;1.60;;;;;;;;;;6221606;23;19983;-87
2021/12/20 04:46:25;;;;;;;2.90;2.10;;;;;;;;;;6248373;23;20307;-88
2021/12/20 04:48:50;;;;;;;2.33;1.80;;;;;;;;;;6221435;23;20057;-88
2021/12/20 04:51:16;;;;;;;3.88;1.70;;;;;;;;;;6221550;23;20023;-88
2021/12/20 04:53:41;;;;;;;3.10;2.13;;;;;;;;;;6221862;23;20008;-87
2021/12/20 04:56:07;;;;;;;2.72;2.05;;;;;;;;;;6221663;23;20019;-87
2021/12/20 04:58:32;;;;;;;2.80;2.22;;;;;;;;;;6248116;23;20373;-87
2021/12/20 05:00:58;;;;;;;4.35;2.03;;;;;;;;;;6221342;23;20012;-88
2021/12/20 05:03:23;;;;;;;2.15;1.65;;;;;;;;;;6221757;23;20023;-87
2021/12/20 05:05:49;;;;;;;3.20;2.08;;;;;;;;;;6221346;23;20012;-85
2021/12/20 05:08:15;;;;;;;3.28;2.28;;;;;;;;;;6221924;23;20384;-88
2021/12/20 05:10:42;;;;;;;2.22;1.73;;;;;;;;;;6221456;23;20031;-88
2021/12/20 05:13:10;;;;;;;4.03;2.20;;;;;;;;;;6221653;23;20012;-87
2021/12/20 05:15:37;;;;;;;2.30;1.80;;;;;;;;;;6247914;23;20419;-87
2021/12/20 05:18:08;;;;;;;2.35;2.10;;;;;;;;;;6221483;23;20012;-86
2021/12/20 05:20:34;;;;;;;3.67;1.73;;;;;;;;;;6221309;23;20011;-87
2021/12/20 05:23:01;;;;;;;2.83;2.53;;;;;;;;;;6221203;23;20008;-87
2021/12/20 05:25:27;;;;;;;5.07;1.88;;;;;;;;;;6221094;23;20008;-84
2021/12/20 05:27:53;;;;;;;2.58;1.88;;;;;;;;;;6221364;23;20027;-88
2021/12/20 05:30:20;;;;;;;1.73;1.45;;;;;;;;;;6221563;23;20008;-88
2021/12/20 05:32:46;;;;;;;2.22;1.70;;;;;;;;;;6247261;23;20004;-85
2021/12/20 05:35:13;;;;;;;2.65;1.80;;;;;;;;;;6221250;23;20061;-87
2021/12/20 05:37:40;;;;;;;3.38;2.10;;;;;;;;;;6247937;23;20008;-84
2021/12/20 05:40:07;;;;;;;2.67;1.95;;;;;;;;;;6221035;23;20387;-87
2021/12/20 05:42:32;;;;;;;3.22;2.03;;;;;;;;;;6247709;23;20419;-87
2021/12/20 05:44:58;;;;;;;3.10;1.98;;;;;;;;;;6221993;23;20011;-87
2021/12/20 05:47:24;;;;;;;2.75;2.05;;;;;;;;;;6220922;23;20012;-87
2021/12/20 05:49:50;;;;;;;2.45;1.60;;;;;;;;;;6247764;23;20087;-83
2021/12/20 05:52:16;;;;;;;2.33;1.90;;;;;;;;;;6220841;23;20000;-88
2021/12/20 05:54:41;;;;;;;2.33;1.75;;;;;;;;;;6247732;23;20023;-84
2021/12/20 05:57:07;;;;;;;1.95;1.45;;;;;;;;;;6220717;23;20004;-86
2021/12/20 05:59:32;;;;;;;2.70;1.52;;;;;;;;;;6220386;23;20347;-86
2021/12/20 06:01:58;;;;;;;2.05;1.58;;;;;;;;;;6220184;23;20019;-88
2021/12/20 06:04:24;;;;;;;2.25;1.63;;;;;;;;;;6247946;23;20004;-86
2021/12/20 06:06:49;;;;;;;4.03;1.90;;;;;;;;;;6247521;23;20319;-87
2021/12/20 06:09:15;;;;;;;1.95;1.85;;;;;;;;;;6247385;23;20008;-85
2021/12/20 06:11:41;;;;;;;2.88;1.30;;;;;;;;;;6220929;23;20008;-84
2021/12/20 06:14:06;;;;;;;2.05;1.52;;;;;;;;;;6247682;23;20009;-87
2021/12/20 06:16:32;;;;;;;1.80;1.45;;;;;;;;;;6220566;23;20391;-88
2021/12/20 06:18:57;;;;;;;3.00;1.92;;;;;;;;;;6221389;23;20014;-87
2021/12/20 06:21:23;;;;;;;2.22;1.80;;;;;;;;;;6221062;23;20015;-87
2021/12/20 06:23:49;;;;;;;2.03;1.60;;;;;;;;;;6220702;23;20366;-85
2021/12/20 06:26:15;;;;;;;2.25;1.55;;;;;;;;;;6220667;23;20008;-86
2021/12/20 06:28:40;;;;;;;2.38;1.92;;;;;;;;;;6220826;23;20004;-88
2021/12/20 06:31:06;;;;;;;5.32;3.15;;;;;;;;;;6220279;23;20004;-90
2021/12/20 06:33:32;;;;;;;3.58;2.00;;;;;;;;;;6219997;23;20015;-88
2021/12/20 06:35:57;;;;;;;5.25;3.28;;;;;;;;;;6219753;23;20081;-88
2021/12/20 06:38:23;;;;;;;3.05;1.95;;;;;;;;;;6247727;23;20000;-89
2021/12/20 06:40:50;;;;;;;2.25;1.73;;;;;;;;;;6220247;23;20051;-89
2021/12/20 06:43:17;;;;;;;5.13;2.53;;;;;;;;;;6220814;23;20007;-89
2021/12/20 06:45:43;;;;;;;4.18;2.10;;;;;;;;;;6220683;23;20004;-87
2021/12/20 06:48:08;;;;;;;2.38;1.75;;;;;;;;;;6247082;23;20027;-85
2021/12/20 06:50:34;;;;;;;1.55;1.13;;;;;;;;;;6220351;23;20003;-88
2021/12/20 06:52:59;;;;;;;2.28;1.60;;;;;;;;;;6220724;23;20028;-87
2021/12/20 06:55:25;;;;;;;2.53;1.65;;;;;;;;;;6247323;23;20439;-88
2021/12/20 06:57:51;;;;;;;2.55;1.90;;;;;;;;;;6247342;23;20069;-86
2021/12/20 07:00:17;;;;;;;2.78;1.80;;;;;;;;;;6220926;23;20004;-89
2021/12/20 07:02:42;;;;;;;2.03;1.60;;;;;;;;;;6221707;23;20014;-88
2021/12/20 07:05:08;;;;;;;2.00;1.38;;;;;;;;;;6220500;23;20090;-88
2021/12/20 07:07:34;;;;;;;3.65;1.90;;;;;;;;;;6221157;23;20043;-91
2021/12/20 07:10:00;;;;;;;4.57;2.25;;;;;;;;;;6221244;23;20012;-89
2021/12/20 07:12:28;;;;;;;3.03;2.33;;;;;;;;;;6247694;23;19997;-86
2021/12/20 07:14:53;;;;;;;3.95;1.60;;;;;;;;;;6247246;23;20004;-89
2021/12/20 07:17:20;;;;;;;2.08;1.50;;;;;;;;;;6216284;23;20020;-91
2021/12/20 07:19:45;;;;;;;1.80;1.60;;;;;;;;;;6216100;23;20079;-89
2021/12/20 07:22:11;;;;;;;2.15;1.45;;;;;;;;;;6215597;23;20375;-88
2021/12/20 07:24:37;;;;;;;1.75;1.65;;;;;;;;;;6216128;23;20076;-86
2021/12/20 07:27:03;;;;;;;2.47;1.60;;;;;;;;;;6215853;23;20009;-83
2021/12/20 07:29:29;;;;;;;4.75;1.77;;;;;;;;;;6216623;23;20004;-91
2021/12/20 07:31:54;;;;;;;3.40;1.80;;;;;;;;;;6215402;23;20028;-93
2021/12/20 07:34:20;;;;;;;4.68;2.65;;;;;;;;;;6218588;23;20087;-92
2021/12/20 07:36:45;;;;;;;10.25;2.80;;;;;;;;;;6220525;23;20012;-92
2021/12/20 07:39:11;;;;;;;5.40;2.67;;;;;;;;;;6219201;23;20004;-89
2021/12/20 07:41:36;;;;;;;6.90;4.05;;;;;;;;;;6217302;23;20332;-92
2021/12/20 07:44:02;;;;;;;9.48;3.60;;;;;;;;;;6216093;23;20050;-89
2021/12/20 07:46:27;;;;;;;7.68;5.35;;;;;;;;;;6216805;23;20001;-91
2021/12/20 07:48:53;;;;;;;8.57;4.00;;;;;;;;;;6215418;23;20080;-86
2021/12/20 07:51:18;;;;;;;7.50;4.40;;;;;;;;;;6215442;23;20011;-88
2021/12/20 07:53:44;;;;;;;8.63;5.07;;;;;;;;;;6215757;23;20088;-90
2021/12/20 07:56:10;;;;;;;8.35;4.50;;;;;;;;;;6217220;23;20386;-89
2021/12/20 07:58:36;;;;;;;7.50;3.83;;;;;;;;;;6218970;23;20028;-88
2021/12/20 08:01:04;;;;;;;6.68;3.88;;;;;;;;;;6216314;23;20348;-88
2021/12/20 08:03:30;;;;;;;5.57;3.80;;;;;;;;;;6217844;23;20004;-89
2021/12/20 08:05:55;;;;;;;7.30;3.90;;;;;;;;;;6217280;23;20004;-88
2021/12/20 08:08:21;;;;;;;4.63;3.28;;;;;;;;;;6217704;23;20035;-89
2021/12/20 08:10:46;;;;;;;5.53;3.10;;;;;;;;;;6220212;23;20440;-88
2021/12/20 08:13:13;;;;;;;5.93;3.55;;;;;;;;;;6217723;23;20001;-88
2021/12/20 08:15:39;;;;;;;4.68;2.97;;;;;;;;;;6217515;23;20009;-88
2021/12/20 08:18:06;;;;;;;8.77;4.05;;;;;;;;;;6217674;23;20013;-89
2021/12/20 08:20:31;;;;;;;7.38;3.30;;;;;;;;;;6218373;23;20026;-89
2021/12/20 08:22:57;;;;;;;5.20;3.88;;;;;;;;;;6217538;23;20087;-89
2021/12/20 08:25:22;;;;;;;4.70;3.45;;;;;;;;;;6217701;23;20004;-90
2021/12/20 08:27:49;;;;;;;3.97;3.63;;;;;;;;;;6218216;23;20008;-89
2021/12/20 08:30:14;;;;;;;9.05;3.58;;;;;;;;;;6216954;23;20047;-89
2021/12/20 08:32:40;;;;;;;5.22;3.78;;;;;;;;;;6217022;23;20004;-89
2021/12/20 08:35:09;;;;;;;7.00;4.18;;;;;;;;;;6217353;23;20443;-89
2021/12/20 08:37:34;;;;;;;6.63;3.97;;;;;;;;;;6242847;23;20028;-87
2021/12/20 08:40:02;;;;;;;6.15;3.47;;;;;;;;;;6217705;23;20417;-87
2021/12/20 08:42:28;;;;;;;4.47;3.70;;;;;;;;;;6217206;23;20013;-88
2021/12/20 08:44:53;;;;;;;6.18;4.10;;;;;;;;;;6217286;23;20466;-88
2021/12/20 08:47:19;;;;;;;6.03;4.00;;;;;;;;;;6216904;23;20001;-86
2021/12/20 08:49:45;;;;;;;4.63;3.65;;;;;;;;;;6218165;23;20333;-88
2021/12/20 08:52:11;;;;;;;7.03;3.17;;;;;;;;;;6218443;23;20008;-88
2021/12/20 08:54:36;;;;;;;4.93;3.30;;;;;;;;;;6190017;23;20024;-88
2021/12/20 08:57:02;;;;;;;5.30;2.63;;;;;;;;;;6186479;23;20009;-86
2021/12/20 08:59:28;;;;;;;5.05;3.15;;;;;;;;;;6188447;23;20024;-88
2021/12/20 09:32:45;;;;;;;3.40;2.42;;;;;;;;;;6215312;23;20016;-89
2021/12/20 09:35:11;;;;;;;5.75;2.50;;;;;;;;;;6216040;23;20007;-88
2021/12/20 09:37:39;;;;;;;3.08;2.38;;;;;;;;;;6218506;23;20487;-90
2021/12/20 09:40:07;;;;;;;4.75;2.30;;;;;;;;;;6217823;23;20428;-92
2021/12/20 09:42:33;;;;;;;3.17;2.40;;;;;;;;;;6217482;23;20031;-89
2021/12/20 09:45:00;;;;;;;4.00;2.10;;;;;;;;;;6217248;23;20011;-85
2021/12/20 09:47:31;;;;;;;2.90;2.00;;;;;;;;;;6215415;23;20053;-84
2021/12/20 09:49:58;;;;;;;3.00;2.10;;;;;;;;;;6216574;23;20320;-87
2021/12/20 09:52:24;;;;;;;2.83;2.30;;;;;;;;;;6216918;23;20001;-87
2021/12/20 09:54:49;;;;;;;17.30;4.20;;;;;;;;;;6215297;23;20008;-84
2021/12/20 09:57:18;;;;;;;5.93;4.35;;;;;;;;;;6216451;23;20072;-84
2021/12/20 09:59:44;;;;;;;12.05;9.55;;;;;;;;;;6216933;23;20004;-84
2021/12/20 10:02:10;;;;;;;15.75;9.82;;;;;;;;;;6216815;23;20120;-84
2021/12/20 10:04:36;;;;;;;14.40;10.77;;;;;;;;;;6216641;23;20432;-83
2021/12/20 10:07:02;;;;;;;14.50;11.38;;;;;;;;;;6216709;23;20076;-83
2021/12/20 10:09:33;;;;;;;16.95;12.82;;;;;;;;;;6216582;23;20428;-86
2021/12/20 10:12:12;;;;;;;15.00;12.02;;;;;;;;;;6216625;23;20011;-88
2021/12/20 10:14:59;;;;;;;17.20;14.10;;;;;;;;;;6216802;23;20075;-85
2021/12/20 10:17:31;;;;;;;18.65;15.85;;;;;;;;;;6216368;23;20063;-87
2021/12/20 10:20:14;;;;;;;24.20;18.95;;;;;;;;;;6216182;23;20027;-88
2021/12/20 10:22:39;;;;;;;23.15;18.50;;;;;;;;;;6216457;23;20054;-83
2021/12/20 10:25:23;;;;;;;25.10;20.52;;;;;;;;;;6216213;23;20008;-83
2021/12/20 10:27:49;;;;;;;24.77;20.15;;;;;;;;;;6216281;23;20015;-84
2021/12/20 10:30:32;;;;;;;27.25;18.67;;;;;;;;;;6216451;23;20383;-81
2021/12/20 10:32:58;;;;;;;25.90;19.15;;;;;;;;;;6216458;23;20013;-82
2021/12/20 10:35:26;;;;;;;21.25;18.27;;;;;;;;;;6216177;23;20344;-83
2021/12/20 10:37:58;;;;;;;24.35;18.98;;;;;;;;;;6216619;23;20038;-85
2021/12/20 10:40:24;;;;;;;24.95;20.20;;;;;;;;;;6216554;23;20008;-85
2021/12/20 10:42:50;;;;;;;23.88;19.42;;;;;;;;;;6214765;23;20008;-82
2021/12/20 10:45:19;;;;;;;21.73;18.17;;;;;;;;;;6216207;23;20028;-82
2021/12/20 10:47:46;;;;;;;33.63;23.20;;;;;;;;;;6216144;23;20050;-83
2021/12/20 10:50:26;;;;;;;30.77;21.33;;;;;;;;;;6216739;23;20328;-82
2021/12/20 10:52:53;;;;;;;27.25;19.48;;;;;;;;;;6216104;23;20007;-81
2021/12/20 10:55:40;;;;;;;39.08;25.23;;;;;;;;;;6216252;23;20008;-82
2021/12/20 10:58:16;;;;;;;40.78;25.55;;;;;;;;;;6215930;23;20035;-82
2021/12/20 11:00:42;;;;;;;41.92;25.42;;;;;;;;;;6216011;23;20012;-84
2021/12/20 11:05:45;;;;;;;48.00;29.52;;;;;;;;;;6226738;23;20458;-85
2021/12/20 11:11:12;;;;;;;33.30;22.27;;;;;;;;;;6216369;23;20043;-86
2021/12/20 11:13:38;;;;;;;;;;;;;;;;;;6216802;23;20007;-87
2021/12/20 11:16:26;;;;;;;38.80;25.90;;;;;;;;;;6214529;23;19979;-86
2021/12/20 11:19:06;;;;;;;38.65;26.08;;;;;;;;;;6215839;23;20008;-87
2021/12/20 11:21:36;;;;;;;31.25;24.08;;;;;;;;;;6216042;23;20069;-87
2021/12/20 11:24:01;;;;;;;33.40;24.55;;;;;;;;;;6214712;23;20055;-88
2021/12/20 11:26:27;;;;;;;33.08;23.88;;;;;;;;;;6214474;23;20091;-88
2021/12/20 11:28:55;;;;;;;31.58;23.45;;;;;;;;;;6215856;23;20410;-86
2021/12/20 11:31:21;;;;;;;40.03;26.52;;;;;;;;;;6217174;23;20110;-84
2021/12/20 11:33:46;;;;;;;33.63;24.35;;;;;;;;;;6218325;23;20004;-84
2021/12/20 11:36:12;;;;;;;33.47;24.90;;;;;;;;;;6216423;23;20045;-86
2021/12/20 11:38:39;;;;;;;33.63;24.42;;;;;;;;;;6217919;23;20008;-84
2021/12/20 11:41:05;;;;;;;37.08;26.52;;;;;;;;;;6217960;23;20067;-84
2021/12/20 11:43:31;;;;;;;35.05;23.80;;;;;;;;;;6218286;23;20049;-83
2021/12/20 11:45:58;;;;;;;35.03;25.30;;;;;;;;;;6217810;23;20007;-83
2021/12/20 11:48:26;;;;;;;33.08;24.75;;;;;;;;;;6217996;23;20443;-83
2021/12/20 11:50:56;;;;;;;36.95;26.10;;;;;;;;;;6217848;23;20080;-83
2021/12/20 11:53:22;;;;;;;36.05;25.50;;;;;;;;;;6217991;23;20058;-83
2021/12/20 11:55:50;;;;;;;35.05;25.13;;;;;;;;;;6216169;23;20004;-84
2021/12/20 11:58:22;;;;;;;35.88;24.17;;;;;;;;;;6217857;23;20416;-88
2021/12/20 12:00:53;;;;;;;37.17;26.02;;;;;;;;;;6218273;23;20379;-86
2021/12/20 12:03:24;;;;;;;39.42;27.42;;;;;;;;;;6216567;23;20009;-89
2021/12/20 12:06:10;;;;;;;41.05;27.20;;;;;;;;;;6216528;23;20036;-88
2021/12/20 12:08:37;;;;;;;38.45;27.10;;;;;;;;;;6217591;23;20032;-92
2021/12/20 12:11:09;;;;;;;38.88;26.67;;;;;;;;;;6217595;23;20083;-88
2021/12/20 12:13:51;;;;;;;41.78;27.95;;;;;;;;;;6216058;23;20423;-88
2021/12/20 12:16:30;;;;;;;41.90;27.63;;;;;;;;;;6217829;23;20024;-88
2021/12/20 12:18:58;;;;;;;40.73;27.67;;;;;;;;;;6216114;23;20071;-88
2021/12/20 12:21:33;;;;;;;46.83;30.83;;;;;;;;;;6216765;23;20008;-92
2021/12/20 12:24:09;;;;;;;43.95;30.88;;;;;;;;;;6218547;23;20078;-92
2021/12/20 12:26:40;;;;;;;49.53;30.80;;;;;;;;;;6219232;23;20001;-93
2021/12/20 12:29:13;;;;;;;49.35;32.00;;;;;;;;;;6219297;23;20009;-93
2021/12/20 12:31:57;;;;;;;49.38;31.38;;;;;;;;;;6217488;23;20009;-91
2021/12/20 12:34:40;;;;;;;48.90;32.03;;;;;;;;;;6217434;23;20092;-90
2021/12/20 12:37:30;;;;;;;49.17;30.98;;;;;;;;;;6217628;23;20042;-88
2021/12/20 12:40:21;;;;;;;47.13;30.45;;;;;;;;;;6217399;23;20088;-87
2021/12/20 12:42:50;;;;;;;49.85;30.45;;;;;;;;;;6216441;23;20463;-89
2021/12/20 12:45:53;;;;;;;50.15;30.70;;;;;;;;;;6217740;23;20027;-86
2021/12/20 12:48:38;;;;;;;48.25;30.35;;;;;;;;;;6217299;23;20001;-86
2021/12/20 17:09:29;;;;;;;26.33;15.45;;;;;;;;;;6230839;22;20024;-85
2021/12/20 17:11:55;;;;;;;31.40;17.92;;;;;;;;;;6247667;23;20008;-83
2021/12/20 17:14:20;;;;;;;31.63;18.08;;;;;;;;;;6220660;23;20011;-84
2021/12/20 17:16:47;;;;;;;36.97;21.90;;;;;;;;;;6247572;23;20007;-83
2021/12/20 17:19:13;;;;;;;38.40;22.05;;;;;;;;;;6220703;23;20004;-84
2021/12/20 17:21:38;;;;;;;31.73;20.10;;;;;;;;;;6247629;23;20431;-85
2021/12/20 17:24:05;;;;;;;32.80;18.25;;;;;;;;;;6221957;23;20004;-89
2021/12/20 17:26:30;;;;;;;39.72;25.42;;;;;;;;;;6248071;23;20031;-87
2021/12/20 17:28:56;;;;;;;33.83;19.50;;;;;;;;;;6247751;23;20000;-83
2021/12/20 17:31:21;;;;;;;29.83;19.10;;;;;;;;;;6247740;23;20030;-83
2021/12/20 17:33:48;;;;;;;33.13;18.98;;;;;;;;;;6247582;23;20031;-82
2021/12/20 17:36:13;;;;;;;33.03;19.23;;;;;;;;;;6247058;23;20008;-82
2021/12/20 17:38:39;;;;;;;89.60;46.05;;;;;;;;;;6247097;23;20032;-84
2021/12/20 17:41:05;;;;;;;117.50;52.22;;;;;;;;;;6247461;23;20015;-84
2021/12/20 17:43:31;;;;;;;47.25;26.40;;;;;;;;;;6247090;23;20000;-85
2021/12/20 17:45:56;;;;;;;193.50;69.68;;;;;;;;;;6247019;23;20300;-82
2021/12/20 17:48:23;;;;;;;408.40;111.88;;;;;;;;;;6247349;23;20412;-83
2021/12/20 17:50:48;;;;;;;412.58;110.95;;;;;;;;;;6247233;23;20012;-87
2021/12/20 17:53:14;;;;;;;133.07;46.65;;;;;;;;;;6247393;23;20011;-89
2021/12/20 17:55:40;;;;;;;267.88;80.80;;;;;;;;;;6247121;23;20003;-88
2021/12/20 17:58:05;;;;;;;197.13;71.05;;;;;;;;;;6247038;23;20001;-88
2021/12/20 18:00:32;;;;;;;171.80;55.42;;;;;;;;;;6220226;23;20415;-88
2021/12/20 18:02:58;;;;;;;98.72;41.47;;;;;;;;;;6246787;23;20008;-83
2021/12/20 18:05:25;;;;;;;78.82;35.88;;;;;;;;;;6247137;23;20004;-83
2021/12/20 18:07:50;;;;;;;74.47;33.92;;;;;;;;;;6247036;23;20007;-88
2021/12/20 18:10:16;;;;;;;52.15;29.52;;;;;;;;;;6246816;23;20008;-88
2021/12/20 18:12:45;;;;;;;67.63;37.72;;;;;;;;;;6246991;23;20050;-90
2021/12/20 18:15:13;;;;;;;53.08;32.20;;;;;;;;;;6247337;23;20050;-86
2021/12/20 18:17:39;;;;;;;55.90;32.13;;;;;;;;;;6219965;23;20416;-81
2021/12/20 18:20:06;;;;;;;51.22;29.98;;;;;;;;;;6246635;23;20062;-82
2021/12/20 18:22:32;;;;;;;52.08;29.55;;;;;;;;;;6246437;23;20035;-82
2021/12/20 18:24:57;;;;;;;49.33;29.08;;;;;;;;;;6247422;23;20004;-82
2021/12/20 18:27:23;;;;;;;49.13;28.48;;;;;;;;;;6246775;23;20007;-81
2021/12/20 18:29:48;;;;;;;45.53;27.63;;;;;;;;;;6246752;23;20031;-81
2021/12/20 18:32:14;;;;;;;54.97;33.50;;;;;;;;;;6246407;23;20435;-82
2021/12/20 18:34:39;;;;;;;64.40;35.13;;;;;;;;;;6246502;23;20008;-83
2021/12/20 18:37:05;;;;;;;54.92;31.77;;;;;;;;;;6246523;23;20400;-84
2021/12/20 18:39:30;;;;;;;62.80;35.15;;;;;;;;;;6246356;23;20091;-86
2021/12/20 18:41:56;;;;;;;56.00;31.02;;;;;;;;;;6246546;23;20040;-84
2021/12/20 18:44:22;;;;;;;56.42;31.65;;;;;;;;;;6246666;23;20004;-85
2021/12/20 18:46:51;;;;;;;44.95;28.35;;;;;;;;;;6246510;23;20008;-85
2021/12/20 18:49:18;;;;;;;54.92;30.40;;;;;;;;;;6219800;23;20012;-88
2021/12/20 18:51:45;;;;;;;52.22;30.90;;;;;;;;;;6247220;23;20003;-86
2021/12/20 18:54:10;;;;;;;40.38;25.63;;;;;;;;;;6220479;23;20000;-88
2021/12/20 18:56:38;;;;;;;44.55;26.25;;;;;;;;;;6247541;23;20004;-89
2021/12/20 18:59:04;;;;;;;39.78;23.52;;;;;;;;;;6220285;23;20019;-87
2021/12/20 19:01:30;;;;;;;46.08;27.15;;;;;;;;;;6247624;23;20004;-86
2021/12/20 19:03:57;;;;;;;43.28;25.58;;;;;;;;;;6247105;23;20087;-86
2021/12/20 19:06:24;;;;;;;59.63;34.75;;;;;;;;;;6247137;23;20007;-88
2021/12/20 19:08:50;;;;;;;50.42;30.95;;;;;;;;;;6247714;23;20087;-88
2021/12/20 19:11:34;;;;;;;45.72;26.90;;;;;;;;;;6246889;23;20013;-85
2021/12/20 20:49:07;;;;;;;40.28;22.27;;;;;;;;;;6235710;22;20094;-84
2021/12/20 20:51:33;;;;;;;39.60;24.27;;;;;;;;;;6220961;23;20442;-85
2021/12/20 20:53:59;;;;;;;39.13;23.23;;;;;;;;;;6220780;23;20427;-86
2021/12/20 20:56:26;;;;;;;43.10;24.45;;;;;;;;;;6247777;23;20036;-87
2021/12/20 20:58:53;;;;;;;43.25;24.63;;;;;;;;;;6247718;23;20000;-86
2021/12/20 21:03:52;;;;;;;38.25;22.50;;;;;;;;;;6250113;23;20138;-86
2021/12/20 21:06:18;;;;;;;38.15;24.13;;;;;;;;;;6247828;23;19996;-86
2021/12/20 21:08:43;;;;;;;43.05;24.17;;;;;;;;;;6247752;23;20004;-86
2021/12/20 21:11:09;;;;;;;40.10;23.00;;;;;;;;;;6247831;23;20070;-85
2021/12/20 21:13:35;;;;;;;37.17;22.65;;;;;;;;;;6220634;23;20015;-87
2021/12/20 21:16:00;;;;;;;37.65;22.02;;;;;;;;;;6247569;23;20004;-85
2021/12/20 21:18:26;;;;;;;35.08;22.42;;;;;;;;;;6221238;23;20004;-88
2021/12/20 21:20:52;;;;;;;38.35;23.02;;;;;;;;;;6220705;23;20004;-89